createdAt,value
2023-01-30T01:17:26.185Z,97.20
2023-01-30T01:19:58.568Z,100.63
2023-01-30T01:22:30.742Z,102.85
2023-01-30T01:25:32.485Z,104.70
2023-01-30T01:28:04.945Z,102.95
2023-01-30T01:30:40.060Z,95.60
2023-01-30T01:33:12.166Z,101.43
2023-01-30T01:35:44.239Z,101.90
2023-01-30T01:38:31.860Z,92.53
2023-01-30T01:41:06.557Z,91.95
2023-01-30T01:44:07.187Z,101.95
2023-01-30T01:46:56.272Z,92.32
2023-01-30T01:49:36.004Z,93.20
2023-01-30T01:52:13.892Z,92.53
2023-01-30T01:55:38.322Z,90.82
2023-01-30T01:58:39.782Z,88.47
2023-01-30T02:01:12.256Z,94.35
2023-01-30T02:03:51.155Z,94.53
2023-01-30T02:06:23.954Z,98.13
2023-01-30T02:09:03.078Z,92.85
2023-01-30T02:11:47.730Z,92.60
2023-01-30T02:14:22.046Z,97.22
2023-01-30T02:17:59.714Z,94.15
2023-01-30T02:20:42.259Z,97.88
2023-01-30T02:23:39.309Z,97.18
2023-01-30T02:26:36.770Z,95.78
2023-01-30T02:29:45.318Z,85.47
2023-01-30T02:32:50.186Z,78.57
2023-01-30T02:36:02.981Z,92.22
2023-01-30T02:39:02.164Z,84.20
2023-01-30T02:42:25.666Z,81.50
2023-01-30T02:45:49.293Z,80.75
2023-01-30T02:48:42.908Z,85.45
2023-01-30T02:51:22.429Z,72.07
2023-01-30T02:54:35.169Z,77.78
2023-01-30T02:57:23.156Z,67.43
2023-01-30T03:00:02.367Z,72.13
2023-01-30T03:03:07.138Z,68.28
2023-01-30T03:06:03.483Z,65.57
2023-01-30T03:08:56.583Z,66.30
2023-01-30T03:11:43.061Z,60.08
2023-01-30T03:14:31.424Z,57.20
2023-01-30T03:17:29.844Z,58.55
2023-01-30T03:20:11.960Z,69.93
2023-01-30T03:22:44.287Z,62.47
2023-01-30T03:25:23.711Z,59.03
2023-01-30T03:27:56.970Z,55.93
2023-01-30T03:30:29.119Z,62.20
2023-01-30T03:33:01.952Z,56.78
2023-01-30T03:35:36.057Z,50.60
2023-01-30T03:38:08.254Z,52.35
2023-01-30T03:40:40.484Z,52.55
2023-01-30T03:43:12.601Z,48.25
2023-01-30T03:45:45.003Z,52.30
2023-01-30T03:48:17.183Z,52.88
2023-01-30T03:50:49.371Z,48.97
2023-01-30T03:53:30.586Z,48.10
2023-01-30T03:56:02.782Z,40.10
2023-01-30T03:58:35.152Z,47.13
2023-01-30T04:01:08.744Z,44.40
2023-01-30T04:03:40.749Z,40.28
2023-01-30T04:06:12.900Z,37.28
2023-01-30T04:08:45.131Z,36.28
2023-01-30T04:11:17.179Z,35.58
2023-01-30T04:13:49.497Z,39.85
2023-01-30T04:16:27.191Z,38.53
2023-01-30T04:18:59.584Z,33.05
2023-01-30T04:23:01.643Z,34.63
2023-01-30T04:25:45.394Z,31.90
2023-01-30T04:28:18.091Z,28.38
2023-01-30T04:30:50.378Z,29.23
2023-01-30T04:33:22.725Z,26.15
2023-01-30T04:36:32.258Z,22.95
2023-01-30T04:39:05.135Z,15.60
2023-01-30T04:41:37.260Z,12.55
2023-01-30T04:44:09.662Z,11.02
2023-01-30T04:46:44.101Z,11.65
2023-01-30T04:49:16.438Z,9.15
2023-01-30T04:51:51.461Z,8.35
2023-01-30T04:54:23.630Z,8.13
2023-01-30T04:56:57.378Z,12.75
2023-01-30T04:59:29.461Z,7.10
2023-01-30T05:02:04.296Z,11.25
2023-01-30T05:04:36.603Z,23.63
2023-01-30T05:07:09.177Z,10.57
2023-01-30T05:09:41.618Z,22.73
2023-01-30T05:12:13.987Z,21.48
2023-01-30T05:14:46.971Z,18.40
2023-01-30T05:17:19.004Z,9.77
2023-01-30T05:19:51.388Z,11.30
2023-01-30T05:22:23.765Z,23.30
2023-01-30T05:24:55.948Z,34.78
2023-01-30T05:27:31.362Z,18.63
2023-01-30T05:30:04.574Z,24.55
2023-01-30T05:32:38.871Z,24.50
2023-01-30T05:35:11.246Z,25.70
2023-01-30T05:37:43.370Z,39.55
2023-01-30T05:40:15.770Z,36.88
2023-01-30T05:42:47.932Z,32.08
2023-01-30T05:45:20.518Z,32.88
2023-01-30T05:47:54.865Z,38.10
2023-01-30T05:50:28.943Z,46.53
2023-01-30T05:53:01.058Z,52.45
2023-01-30T05:55:33.381Z,39.25
2023-01-30T05:58:05.552Z,38.85
2023-01-30T06:00:37.927Z,38.92
2023-01-30T06:03:12.960Z,35.50
2023-01-30T06:05:47.954Z,57.08
2023-01-30T06:08:20.077Z,40.20
2023-01-30T06:10:55.105Z,24.60
2023-01-30T06:13:27.501Z,45.65
2023-01-30T06:16:00.173Z,56.70
2023-01-30T06:18:32.795Z,45.70
2023-01-30T06:21:06.028Z,51.03
2023-01-30T06:23:39.052Z,63.05
2023-01-30T06:26:11.313Z,58.35
2023-01-30T06:28:45.474Z,47.38
2023-01-30T06:31:18.565Z,59.88
2023-01-30T06:33:50.600Z,48.70
2023-01-30T06:36:22.750Z,53.63
2023-01-30T06:38:54.976Z,49.72
2023-01-30T06:41:27.028Z,44.88
2023-01-30T06:43:59.127Z,44.03
2023-01-30T06:46:31.427Z,66.43
2023-01-30T06:49:03.515Z,51.50
2023-01-30T06:51:35.536Z,48.05
2023-01-30T06:54:07.630Z,37.75
2023-01-30T06:56:39.762Z,49.30
2023-01-30T06:59:12.038Z,65.47
2023-01-30T07:01:44.566Z,40.63
2023-01-30T07:04:19.369Z,65.75
2023-01-30T07:06:51.636Z,49.40
2023-01-30T07:09:23.866Z,60.47
2023-01-30T07:12:00.724Z,51.22
2023-01-30T07:14:33.178Z,46.80
2023-01-30T07:17:33.203Z,37.33
2023-01-30T07:20:05.967Z,55.72
2023-01-30T07:22:43.065Z,44.80
2023-01-30T07:25:15.463Z,44.53
2023-01-30T07:27:54.955Z,37.72
2023-01-30T07:30:31.145Z,37.20
2023-01-30T07:42:40.853Z,41.55
2023-01-30T07:46:12.069Z,46.53
2023-01-30T08:09:13.067Z,43.58
2023-01-30T08:11:46.905Z,35.30
2023-01-30T08:14:35.417Z,50.17
2023-01-30T08:17:07.873Z,49.75
2023-01-30T08:19:40.321Z,42.97
2023-01-30T08:22:12.616Z,25.92
2023-01-30T08:24:45.055Z,32.88
2023-01-30T08:27:17.626Z,48.03
2023-01-30T08:29:49.708Z,50.72
2023-01-30T08:32:21.954Z,46.15
2023-01-30T08:34:54.266Z,37.53
2023-01-30T08:37:26.340Z,34.72
2023-01-30T08:39:58.447Z,30.83
2023-01-30T08:42:30.805Z,38.65
2023-01-30T08:45:03.230Z,42.50
2023-01-30T08:47:35.730Z,35.70
2023-01-30T08:50:08.818Z,53.30
2023-01-30T08:52:40.890Z,47.83
2023-01-30T08:55:12.982Z,41.30
2023-01-30T08:57:45.424Z,23.98
2023-01-30T09:00:18.559Z,37.78
2023-01-30T09:02:57.642Z,56.15
2023-01-30T09:05:30.323Z,28.52
2023-01-30T09:08:03.084Z,47.95
2023-01-30T09:10:35.511Z,53.50
2023-01-30T09:13:10.257Z,41.17
2023-01-30T09:15:44.093Z,39.33
2023-01-30T09:18:17.276Z,41.58
2023-01-30T09:20:49.381Z,29.27
2023-01-30T09:23:22.628Z,31.88
2023-01-30T09:25:55.007Z,40.30
2023-01-30T09:28:27.606Z,44.58
2023-01-30T09:31:01.577Z,49.15
2023-01-30T09:33:33.804Z,45.10
2023-01-30T09:36:06.586Z,38.45
2023-01-30T09:38:38.537Z,35.80
2023-01-30T09:41:48.137Z,31.42
2023-01-30T09:45:19.363Z,32.33
2023-01-30T09:48:12.308Z,43.70
2023-01-30T09:51:57.988Z,26.85
2023-01-30T09:54:36.883Z,23.02
2023-01-30T09:57:21.679Z,24.52
2023-01-30T10:00:12.768Z,32.70
2023-01-30T10:03:11.229Z,24.40
2023-01-30T10:06:07.370Z,29.13
2023-01-30T10:08:52.298Z,28.23
2023-01-30T10:11:50.040Z,30.75
2023-01-30T10:14:40.184Z,37.08
2023-01-30T10:17:32.969Z,37.50
2023-01-30T10:20:40.846Z,28.80
2023-01-30T10:23:39.487Z,26.40
2023-01-30T10:26:15.423Z,28.40
2023-01-30T10:29:25.621Z,34.35
2023-01-30T10:32:12.880Z,33.03
2023-01-30T10:34:56.899Z,29.85
2023-01-30T10:37:42.405Z,24.05
2023-01-30T10:40:41.964Z,34.70
2023-01-30T10:43:30.819Z,26.52
2023-01-30T10:46:31.748Z,29.52
2023-01-30T10:49:21.520Z,40.22
2023-01-30T10:52:04.177Z,37.67
2023-01-30T10:55:37.963Z,25.42
2023-01-30T10:58:28.998Z,38.63
2023-01-30T11:01:24.184Z,30.65
2023-01-30T11:04:27.102Z,34.25
2023-01-30T11:07:02.254Z,24.67
2023-01-30T11:09:46.595Z,25.27
2023-01-30T11:12:18.679Z,19.15
2023-01-30T11:14:54.780Z,30.33
2023-01-30T11:17:37.179Z,19.13
2023-01-30T11:20:21.015Z,18.75
2023-01-30T11:23:11.734Z,35.65
2023-01-30T11:26:10.517Z,25.02
2023-01-30T11:28:45.604Z,39.87
2023-01-30T11:31:40.348Z,31.20
2023-01-30T11:34:17.760Z,54.60
2023-01-30T11:36:50.881Z,34.28
2023-01-30T11:39:28.916Z,31.25
2023-01-30T11:42:04.823Z,47.67
2023-01-30T11:44:38.596Z,40.88
2023-01-30T11:47:25.428Z,38.63
2023-01-30T11:50:12.385Z,44.05
2023-01-30T11:52:54.352Z,34.90
2023-01-30T11:55:26.819Z,33.38
2023-01-30T11:58:03.053Z,45.92
2023-01-30T12:00:48.198Z,31.38
2023-01-30T12:03:25.953Z,28.63
2023-01-30T12:05:59.492Z,49.33
2023-01-30T12:08:42.374Z,30.73
2023-01-30T12:11:47.138Z,33.17
2023-01-30T12:14:45.890Z,35.55
2023-01-30T12:17:29.793Z,32.10
2023-01-30T12:20:19.973Z,25.00
2023-01-30T12:26:41.430Z,51.55
2023-01-30T12:30:10.888Z,32.75
2023-01-30T12:32:42.926Z,32.90
2023-01-30T12:35:18.871Z,34.60
2023-01-30T12:38:11.816Z,41.47
2023-01-30T12:41:36.174Z,37.60
2023-01-30T12:44:38.435Z,32.88
2023-01-30T12:48:14.307Z,34.22
2023-01-30T12:51:23.173Z,41.03
2023-01-30T12:54:19.662Z,42.40
2023-01-30T12:57:43.729Z,35.33
2023-01-30T13:00:27.723Z,40.45
2023-01-30T13:03:19.402Z,27.25
2023-01-30T13:06:12.472Z,41.47
2023-01-30T13:09:32.006Z,27.05
2023-01-30T13:12:04.036Z,32.90
2023-01-30T13:15:14.221Z,33.25
2023-01-30T13:18:06.168Z,42.63
2023-01-30T13:20:49.866Z,16.98
2023-01-30T13:23:39.797Z,20.98
2023-01-30T13:27:14.607Z,14.68
2023-01-30T13:29:49.126Z,21.83
2023-01-30T13:32:33.669Z,16.13
2023-01-30T13:35:16.975Z,14.98
2023-01-30T13:37:51.221Z,29.10
2023-01-30T13:40:28.986Z,26.58
2023-01-30T13:46:20.537Z,29.65
2023-01-30T13:49:26.053Z,33.08
2023-01-30T13:52:09.881Z,32.67
2023-01-30T13:55:06.279Z,27.60
2023-01-30T13:57:56.729Z,25.73
2023-01-30T14:00:49.264Z,27.33
2023-01-30T14:03:31.973Z,28.25
2023-01-30T14:06:14.513Z,23.17
2023-01-30T14:08:47.148Z,40.25
2023-01-30T14:11:32.984Z,38.25
2023-01-30T14:14:29.311Z,24.40
2023-01-30T14:17:19.677Z,38.35
2023-01-30T14:23:03.767Z,30.83
2023-01-30T14:25:47.466Z,27.65
2023-01-30T14:28:19.387Z,31.08
2023-01-30T14:30:59.070Z,34.83
2023-01-30T14:33:36.280Z,41.08
2023-01-30T14:36:34.760Z,28.85
2023-01-30T14:39:55.760Z,29.60
2023-01-30T14:42:30.454Z,39.95
2023-01-30T14:45:17.237Z,31.17
2023-01-30T14:48:27.786Z,27.65
2023-01-30T14:51:24.696Z,39.58
2023-01-30T14:54:15.501Z,30.35
2023-01-30T14:57:46.368Z,53.58
2023-01-30T15:00:22.454Z,48.33
2023-01-30T15:03:07.872Z,38.28
2023-01-30T15:05:44.793Z,36.65
2023-01-30T15:08:24.249Z,27.40
2023-01-30T15:11:16.966Z,36.25
2023-01-30T15:14:00.901Z,43.05
2023-01-30T15:16:57.758Z,43.42
2023-01-30T15:20:13.024Z,21.90
2023-01-30T15:23:15.931Z,23.55
2023-01-30T15:26:31.081Z,25.80
2023-01-30T15:29:28.726Z,21.73
2023-01-30T15:32:13.958Z,35.70
2023-01-30T15:35:19.030Z,34.40
2023-01-30T15:37:57.353Z,36.38
2023-01-30T15:40:30.247Z,35.53
2023-01-30T15:43:19.447Z,37.45
2023-01-30T15:46:00.639Z,43.40
2023-01-30T15:49:11.348Z,24.70
2023-01-30T15:51:43.407Z,40.25
2023-01-30T15:54:22.996Z,39.65
2023-01-30T15:56:58.398Z,27.85
2023-01-30T15:59:38.459Z,48.25
2023-01-30T16:02:21.392Z,40.92
2023-01-30T16:05:17.286Z,41.58
2023-01-30T16:07:52.232Z,41.08
2023-01-30T16:10:30.340Z,37.72
2023-01-30T16:13:04.465Z,35.17
2023-01-30T16:16:10.588Z,35.15
2023-01-30T16:18:57.298Z,29.90
2023-01-30T18:20:22.697Z,26.30
2023-01-30T18:22:54.763Z,38.13
2023-01-30T18:25:26.916Z,28.05
2023-01-30T18:27:58.952Z,36.65
2023-01-30T18:30:30.995Z,37.28
2023-01-30T18:33:04.867Z,26.75
2023-01-30T18:35:38.591Z,39.28
2023-01-30T18:38:10.615Z,37.22
2023-01-30T18:40:42.578Z,33.17
2023-01-30T18:43:19.225Z,42.65
2023-01-30T18:46:01.525Z,33.72
2023-01-30T18:48:34.162Z,41.28
2023-01-30T18:51:19.450Z,41.88
2023-01-30T18:53:53.727Z,44.90
2023-01-30T18:56:31.923Z,49.92
2023-01-30T18:59:06.179Z,37.25
2023-01-30T19:01:42.506Z,49.72
2023-01-30T19:04:14.632Z,37.10
2023-01-30T19:06:46.636Z,46.70
2023-01-30T19:09:19.146Z,51.30
2023-01-30T19:12:09.343Z,59.65
2023-01-30T19:14:41.435Z,31.40
2023-01-30T19:17:15.147Z,42.03
2023-01-30T19:19:47.256Z,36.80
2023-01-30T19:22:19.280Z,37.95
2023-01-30T19:24:51.299Z,27.67
2023-01-30T19:27:23.580Z,34.50
2023-01-30T19:29:56.158Z,28.05
2023-01-30T19:32:28.118Z,23.50
2023-01-30T19:35:00.111Z,21.95
2023-01-30T19:37:32.165Z,25.33
2023-01-30T19:40:09.047Z,26.95
2023-01-30T19:42:44.415Z,37.55
2023-01-30T19:45:16.788Z,30.25
2023-01-30T19:47:48.740Z,39.15
2023-01-30T19:50:21.065Z,24.95
2023-01-30T19:52:53.819Z,17.95
2023-01-30T19:55:26.160Z,31.92
2023-01-30T19:57:58.367Z,36.80
2023-01-30T20:00:30.612Z,33.17
2023-01-30T20:03:02.612Z,42.03
2023-01-30T20:05:34.693Z,19.45
2023-01-30T20:08:06.684Z,24.48
2023-01-30T20:10:38.667Z,40.25
2023-01-30T20:13:14.837Z,22.52
2023-01-30T20:15:46.876Z,21.40
2023-01-30T20:18:18.847Z,22.00
2023-01-30T20:20:50.935Z,22.13
2023-01-30T20:23:23.311Z,25.83
2023-01-30T20:25:55.320Z,22.80
2023-01-30T20:28:28.263Z,20.67
2023-01-30T20:31:01.621Z,22.13
2023-01-30T20:33:33.590Z,24.58
2023-01-30T20:36:09.251Z,38.97
2023-01-30T20:38:43.812Z,31.58
2023-01-30T20:41:17.887Z,21.48
2023-01-30T20:43:53.804Z,44.03
2023-01-30T20:46:31.804Z,32.15
2023-01-30T20:49:04.261Z,34.15
2023-01-30T20:51:38.696Z,28.95
2023-01-30T20:54:13.971Z,24.27
2023-01-30T20:56:52.295Z,31.42
2023-01-30T20:59:24.986Z,32.53
2023-01-30T21:01:57.188Z,30.95
2023-01-30T21:04:29.317Z,33.30
2023-01-30T21:07:01.728Z,27.40
2023-01-30T21:09:34.768Z,30.63
2023-01-30T21:12:07.205Z,29.38
2023-01-30T21:14:39.462Z,48.58
2023-01-30T21:17:11.492Z,27.05
2023-01-30T21:19:43.713Z,30.88
2023-01-30T21:22:15.809Z,42.08
2023-01-30T21:24:47.857Z,33.88
2023-01-30T21:27:21.264Z,42.10
2023-01-30T21:29:53.344Z,32.78
2023-01-30T21:32:25.318Z,37.95
2023-01-30T21:34:57.279Z,38.90
2023-01-30T21:37:47.601Z,34.78
2023-01-30T21:43:16.345Z,32.22
2023-01-30T21:45:48.400Z,35.35
2023-01-30T21:48:20.573Z,40.92
2023-01-30T21:50:52.663Z,23.85
2023-01-30T21:53:24.770Z,37.13
2023-01-30T21:55:56.940Z,34.95
2023-01-30T21:58:32.424Z,27.02
2023-01-30T22:01:08.394Z,30.30
2023-01-30T22:03:40.531Z,25.15
2023-01-30T22:06:13.075Z,37.22
2023-01-30T22:08:45.332Z,40.78
2023-01-30T22:11:21.093Z,22.75
2023-01-30T22:13:53.601Z,40.47
2023-01-30T22:16:28.998Z,28.58
2023-01-30T22:19:05.608Z,39.33
2023-01-30T22:21:40.246Z,37.05
2023-01-30T22:24:12.438Z,22.75
2023-01-30T22:26:44.546Z,41.15
2023-01-30T22:29:18.477Z,23.90
2023-01-30T22:31:50.510Z,40.40
2023-01-30T22:34:22.517Z,39.10
2023-01-30T22:36:54.802Z,37.42
2023-01-30T22:39:26.800Z,42.90
2023-01-30T22:41:58.769Z,32.10
2023-01-30T22:44:30.760Z,37.53
2023-01-30T22:47:02.716Z,32.90
2023-01-30T22:49:34.687Z,31.80
2023-01-30T22:52:06.692Z,32.53
2023-01-30T22:54:38.658Z,22.20
2023-01-30T22:57:10.584Z,36.47
2023-01-30T22:59:42.584Z,24.23
2023-01-30T23:02:14.552Z,23.52
2023-01-30T23:04:49.247Z,21.80
2023-01-30T23:07:22.290Z,32.67
2023-01-30T23:09:54.327Z,35.28
2023-01-30T23:12:44.990Z,31.58
2023-01-30T23:15:17.379Z,42.10
2023-01-30T23:18:10.905Z,29.52
2023-01-30T23:20:42.873Z,26.60
2023-01-30T23:23:14.802Z,32.33
2023-01-30T23:25:46.881Z,32.17
2023-01-30T23:28:19.006Z,26.50
2023-01-30T23:30:50.964Z,40.63
2023-01-30T23:33:25.537Z,40.28
2023-01-30T23:36:02.885Z,33.75
2023-01-30T23:38:35.477Z,35.63
2023-01-30T23:41:18.762Z,27.08
2023-01-30T23:43:51.746Z,29.08
2023-01-30T23:46:30.041Z,41.88
2023-01-30T23:49:12.286Z,28.02
2023-01-30T23:51:45.320Z,35.22
2023-01-30T23:54:17.322Z,32.28
2023-01-30T23:56:49.477Z,28.13
2023-01-30T23:59:21.557Z,20.27
